createdAt,value
2017-11-13T00:00:22.563Z,98.20
2017-11-13T00:02:50.277Z,98.10
2017-11-13T00:05:18.075Z,98.20
2017-11-13T00:07:45.771Z,98.30
2017-11-13T00:10:14.248Z,98.30
2017-11-13T00:12:42.098Z,98.30
2017-11-13T00:15:09.953Z,98.30
2017-11-13T00:17:37.827Z,98.00
2017-11-13T00:20:06.406Z,97.90
2017-11-13T00:22:34.273Z,97.90
2017-11-13T00:25:02.145Z,98.00
2017-11-13T00:27:30.010Z,97.70
2017-11-13T00:29:57.876Z,97.90
2017-11-13T00:32:25.741Z,98.00
2017-11-13T00:34:53.448Z,98.30
2017-11-13T00:37:21.924Z,98.00
2017-11-13T00:39:50.471Z,98.20
2017-11-13T00:42:18.339Z,98.20
2017-11-13T00:44:46.046Z,98.30
2017-11-13T00:47:14.523Z,98.00
2017-11-13T00:49:42.992Z,97.80
2017-11-13T00:52:10.836Z,97.80
2017-11-13T00:54:38.699Z,97.60
2017-11-13T00:57:06.404Z,97.20
2017-11-13T00:59:34.881Z,97.50
2017-11-13T01:02:03.538Z,97.10
2017-11-13T01:04:31.399Z,97.10
2017-11-13T01:06:59.265Z,96.90
2017-11-13T01:09:27.130Z,97.30
2017-11-13T01:11:54.998Z,97.20
2017-11-13T01:14:22.865Z,97.10
2017-11-13T01:16:50.733Z,96.60
2017-11-13T01:19:18.600Z,96.70
2017-11-13T01:21:46.468Z,96.90
2017-11-13T01:24:14.334Z,97.10
2017-11-13T01:26:42.203Z,96.70
2017-11-13T01:29:10.070Z,96.80
2017-11-13T01:31:37.937Z,96.70
2017-11-13T01:34:05.804Z,96.90
2017-11-13T01:36:33.672Z,96.70
2017-11-13T01:39:01.404Z,96.70
2017-11-13T01:41:29.203Z,97.00
2017-11-13T01:43:57.068Z,96.80
2017-11-13T01:46:24.936Z,96.90
2017-11-13T01:48:52.802Z,96.80
2017-11-13T01:51:20.671Z,96.90
2017-11-13T01:53:48.550Z,96.80
2017-11-13T01:56:17.224Z,97.00
2017-11-13T01:58:45.093Z,97.00
2017-11-13T02:01:12.961Z,96.90
2017-11-13T02:03:40.826Z,97.10
2017-11-13T02:06:08.796Z,96.70
2017-11-13T02:08:36.632Z,96.80
2017-11-13T02:11:04.391Z,96.90
2017-11-13T02:13:32.153Z,97.10
2017-11-13T02:16:00.070Z,97.10
2017-11-13T02:18:28.747Z,97.30
2017-11-13T02:20:56.614Z,97.30
2017-11-13T02:23:24.481Z,97.30
2017-11-13T02:25:52.452Z,97.20
2017-11-13T02:28:20.322Z,97.30
2017-11-13T02:30:48.186Z,97.20
2017-11-13T02:33:16.052Z,97.20
2017-11-13T02:35:43.924Z,96.90
2017-11-13T02:38:11.787Z,96.90
2017-11-13T02:40:39.655Z,96.60
2017-11-13T02:43:07.523Z,96.40
2017-11-13T02:45:35.492Z,96.90
2017-11-13T02:48:03.358Z,97.10
2017-11-13T02:50:31.127Z,96.80
2017-11-13T02:52:58.936Z,96.40
2017-11-13T02:55:27.519Z,96.70
2017-11-13T02:57:56.263Z,96.70
2017-11-13T03:00:24.140Z,96.70
2017-11-13T03:02:51.996Z,96.60
2017-11-13T03:05:19.868Z,96.50
2017-11-13T03:07:47.732Z,96.40
2017-11-13T03:10:15.598Z,96.30
2017-11-13T03:12:43.470Z,96.40
2017-11-13T03:15:11.541Z,96.30
2017-11-13T03:17:40.123Z,96.50
2017-11-13T03:20:07.990Z,96.60
2017-11-13T03:22:35.857Z,96.60
2017-11-13T03:25:03.631Z,96.50
2017-11-13T03:27:31.489Z,96.50
2017-11-13T03:29:59.356Z,96.40
2017-11-13T03:32:27.225Z,96.40
2017-11-13T03:34:55.024Z,96.50
2017-11-13T03:37:23.676Z,96.50
2017-11-13T03:39:51.471Z,96.50
2017-11-13T03:42:20.127Z,96.60
2017-11-13T03:44:47.993Z,96.60
2017-11-13T03:47:15.713Z,96.60
2017-11-13T03:49:43.432Z,96.60
2017-11-13T03:52:11.153Z,96.60
2017-11-13T03:54:38.862Z,96.50
2017-11-13T03:57:06.575Z,96.70
2017-11-13T03:59:34.379Z,96.90
2017-11-13T04:02:02.245Z,97.10
2017-11-13T04:04:30.141Z,96.90
2017-11-13T04:06:58.700Z,96.60
2017-11-13T04:09:26.568Z,96.60
2017-11-13T04:11:54.434Z,96.60
2017-11-13T04:14:22.304Z,96.60
2017-11-13T04:16:50.098Z,97.00
2017-11-13T04:19:18.632Z,97.00
2017-11-13T04:21:46.414Z,97.00
2017-11-13T04:24:14.281Z,97.10
2017-11-13T04:26:42.151Z,97.10
2017-11-13T04:29:10.016Z,97.10
2017-11-13T04:31:37.882Z,97.20
2017-11-13T04:34:05.648Z,97.20
2017-11-13T04:36:33.514Z,97.20
2017-11-13T04:39:01.382Z,97.50
2017-11-13T04:41:29.659Z,96.90
2017-11-13T04:43:57.373Z,97.10
2017-11-13T04:46:25.085Z,96.80
2017-11-13T04:48:52.852Z,96.90
2017-11-13T04:51:20.722Z,97.20
2017-11-13T04:53:48.586Z,97.40
2017-11-13T04:56:16.453Z,97.40
2017-11-13T04:58:44.321Z,97.50
2017-11-13T05:01:12.118Z,97.50
2017-11-13T05:03:40.670Z,97.60
2017-11-13T05:06:08.537Z,97.60
2017-11-13T05:08:36.283Z,97.50
2017-11-13T05:11:04.003Z,97.40
2017-11-13T05:13:32.560Z,96.90
2017-11-13T05:16:00.704Z,96.90
2017-11-13T05:18:30.102Z,97.10
2017-11-13T05:20:59.979Z,97.00
2017-11-13T05:23:28.480Z,97.00
2017-11-13T05:25:56.246Z,96.90
2017-11-13T05:28:23.972Z,96.80
2017-11-13T05:30:51.777Z,96.80
2017-11-13T05:33:19.547Z,96.80
2017-11-13T05:35:47.450Z,96.90
2017-11-13T05:38:15.319Z,97.10
2017-11-13T05:40:43.051Z,97.20
2017-11-13T05:43:10.840Z,97.30
2017-11-13T05:45:38.714Z,97.20
2017-11-13T05:48:06.582Z,97.20
2017-11-13T05:50:34.347Z,96.90
2017-11-13T05:53:02.216Z,97.00
2017-11-13T05:55:30.082Z,96.90
2017-11-13T05:57:57.948Z,96.90
2017-11-13T06:00:25.817Z,97.10
2017-11-13T06:02:53.683Z,97.10
2017-11-13T06:05:21.552Z,97.00
2017-11-13T06:07:49.284Z,97.00
2017-11-13T06:10:17.182Z,97.10
2017-11-13T06:12:44.908Z,97.00
2017-11-13T06:15:12.713Z,96.80
2017-11-13T06:17:40.440Z,96.90
2017-11-13T06:20:08.179Z,96.80
2017-11-13T06:22:36.689Z,97.30
2017-11-13T06:25:04.489Z,97.00
2017-11-13T06:27:32.368Z,96.80
2017-11-13T06:30:00.108Z,97.00
2017-11-13T06:32:27.990Z,97.10
2017-11-13T06:34:55.723Z,97.00
2017-11-13T06:37:23.456Z,97.00
2017-11-13T06:39:51.951Z,97.20
2017-11-13T06:42:19.680Z,97.20
2017-11-13T06:44:47.439Z,97.00
2017-11-13T06:47:15.298Z,97.00
2017-11-13T06:49:43.164Z,96.90
2017-11-13T06:52:10.888Z,96.70
2017-11-13T06:54:38.636Z,97.00
2017-11-13T06:57:07.136Z,97.00
2017-11-13T06:59:35.042Z,97.00
2017-11-13T07:02:02.780Z,97.00
2017-11-13T07:04:30.510Z,97.10
2017-11-13T07:06:59.022Z,96.60
2017-11-13T07:09:26.769Z,96.60
2017-11-13T07:11:54.516Z,96.80
2017-11-13T07:14:23.017Z,96.50
2017-11-13T07:16:50.741Z,96.50
2017-11-13T07:19:18.594Z,96.50
2017-11-13T07:21:46.466Z,96.60
2017-11-13T07:24:14.330Z,96.90
2017-11-13T07:26:42.199Z,96.90
2017-11-13T07:29:10.065Z,96.90
2017-11-13T07:31:37.936Z,96.70
2017-11-13T07:34:05.806Z,96.60
2017-11-13T07:36:33.669Z,96.40
2017-11-13T07:39:01.536Z,96.30
2017-11-13T07:41:30.048Z,96.00
2017-11-13T07:43:58.551Z,96.00
2017-11-13T07:46:26.263Z,96.00
2017-11-13T07:48:53.972Z,95.80
2017-11-13T07:51:22.448Z,95.70
2017-11-13T07:53:50.923Z,95.70
2017-11-13T07:56:19.412Z,95.40
2017-11-13T07:58:47.174Z,95.40
2017-11-13T08:01:14.893Z,95.10
2017-11-13T08:03:42.612Z,95.30
2017-11-13T08:06:10.429Z,95.40
2017-11-13T08:08:38.296Z,95.00
2017-11-13T08:11:06.165Z,95.10
2017-11-13T08:13:34.030Z,95.20
2017-11-13T08:16:01.903Z,95.10
2017-11-13T08:18:29.621Z,94.60
2017-11-13T08:20:57.427Z,92.20
2017-11-13T08:23:25.313Z,90.80
2017-11-13T08:25:53.165Z,90.80
2017-11-13T08:28:20.917Z,91.20
2017-11-13T08:30:48.712Z,91.50
2017-11-13T08:33:16.515Z,90.60
2017-11-13T08:35:44.294Z,89.90
2017-11-13T08:38:12.048Z,82.60
2017-11-13T08:40:39.789Z,82.10
2017-11-13T08:43:08.298Z,73.50
2017-11-13T08:45:36.044Z,73.50
2017-11-13T08:48:04.548Z,73.70
2017-11-13T08:50:32.282Z,73.60
2017-11-13T08:53:00.792Z,77.80
2017-11-13T08:55:28.532Z,77.70
2017-11-13T08:57:57.023Z,80.70
2017-11-13T09:00:25.525Z,82.60
2017-11-13T09:02:53.255Z,82.60
2017-11-13T09:05:21.752Z,84.60
2017-11-13T09:07:49.491Z,84.60
2017-11-13T09:10:17.308Z,85.00
2017-11-13T09:12:45.048Z,88.00
2017-11-13T09:15:12.791Z,89.00
2017-11-13T09:17:41.285Z,90.30
2017-11-13T09:20:09.816Z,90.60
2017-11-13T09:22:37.537Z,90.60
2017-11-13T09:25:06.019Z,91.00
2017-11-13T09:27:34.504Z,91.40
2017-11-13T09:30:02.225Z,91.30
2017-11-13T09:32:29.960Z,91.70
2017-11-13T09:34:57.675Z,92.30
2017-11-13T09:37:26.207Z,92.00
2017-11-13T09:39:53.955Z,92.00
2017-11-13T09:42:21.736Z,91.30
2017-11-13T09:44:49.459Z,91.60
2017-11-13T09:47:17.975Z,89.70
2017-11-13T09:49:45.743Z,89.70
2017-11-13T09:52:13.507Z,90.60
2017-11-13T09:54:41.273Z,90.50
2017-11-13T09:57:09.044Z,91.30
2017-11-13T09:59:36.795Z,91.90
2017-11-13T10:02:04.569Z,90.30
2017-11-13T10:04:32.303Z,91.90
2017-11-13T10:07:00.845Z,91.70
2017-11-13T10:09:28.584Z,91.60
2017-11-13T10:11:56.316Z,90.50
2017-11-13T10:14:24.898Z,90.30
2017-11-13T10:16:53.454Z,90.10
2017-11-13T10:19:21.296Z,90.10
2017-11-13T10:21:49.117Z,91.10
2017-11-13T10:24:16.888Z,91.50
2017-11-13T10:26:44.736Z,90.30
2017-11-13T10:29:13.254Z,81.60
2017-11-13T10:31:41.016Z,81.50
2017-11-13T10:34:08.776Z,76.60
2017-11-13T10:36:36.523Z,69.70
2017-11-13T10:39:04.354Z,67.90
2017-11-13T10:41:32.085Z,67.30
2017-11-13T10:43:59.863Z,67.20
2017-11-13T10:46:27.647Z,72.20
2017-11-13T10:48:56.167Z,71.90
2017-11-13T10:51:24.707Z,69.20
2017-11-13T10:53:52.535Z,69.20
2017-11-13T10:56:20.324Z,70.80
2017-11-13T10:58:48.139Z,73.20
2017-11-13T11:01:16.720Z,75.70
2017-11-13T11:03:45.304Z,76.90
2017-11-13T11:06:13.863Z,78.80
2017-11-13T11:08:41.623Z,78.70
2017-11-13T11:11:09.414Z,81.80
2017-11-13T11:13:53.841Z,85.80
2017-11-13T11:16:36.485Z,85.80
2017-11-13T11:19:23.699Z,87.40
2017-11-13T11:21:52.102Z,87.30
2017-11-13T11:24:19.865Z,87.80
2017-11-13T11:26:50.896Z,85.40
2017-11-13T11:29:25.108Z,78.90
2017-11-13T11:31:57.280Z,71.50
2017-11-13T11:34:40.659Z,66.80
2017-11-13T11:37:09.039Z,66.70
2017-11-13T11:39:36.801Z,60.90
2017-11-13T11:42:04.599Z,55.00
2017-11-13T11:44:50.146Z,52.70
2017-11-13T11:47:17.913Z,54.10
2017-11-13T11:49:45.675Z,54.10
2017-11-13T11:52:13.471Z,56.80
2017-11-13T11:54:42.123Z,57.50
2017-11-13T11:57:27.651Z,54.80
2017-11-13T11:59:55.451Z,56.90
2017-11-13T12:02:23.229Z,59.90
2017-11-13T12:04:50.954Z,58.10
2017-11-13T12:07:19.469Z,62.20
2017-11-13T12:09:47.233Z,61.90
2017-11-13T12:12:14.996Z,63.60
2017-11-13T12:14:42.747Z,67.50
2017-11-13T12:17:11.247Z,75.10
2017-11-13T12:19:39.010Z,75.00
2017-11-13T12:22:06.772Z,76.60
2017-11-13T12:24:34.514Z,75.20
2017-11-13T12:27:03.012Z,74.70
2017-11-13T12:29:30.732Z,74.80
2017-11-13T12:31:58.455Z,75.30
2017-11-13T12:34:26.169Z,78.00
2017-11-13T12:36:53.899Z,77.90
2017-11-13T12:39:21.639Z,79.60
2017-11-13T12:41:49.355Z,77.70
2017-11-13T12:44:17.075Z,70.10
2017-11-13T12:46:44.796Z,66.70
2017-11-13T12:49:12.515Z,60.90
2017-11-13T12:51:40.240Z,59.60
2017-11-13T12:54:08.760Z,54.50
2017-11-13T12:56:36.511Z,54.40
2017-11-13T12:59:04.266Z,51.30
2017-11-13T13:01:32.010Z,47.50
2017-11-13T13:04:00.532Z,46.50
2017-11-13T13:06:28.260Z,46.40
2017-11-13T13:08:56.797Z,46.60
2017-11-13T13:11:24.561Z,46.40
2017-11-13T13:13:52.307Z,44.30
2017-11-13T13:16:20.067Z,41.90
2017-11-13T13:18:47.807Z,42.60
2017-11-13T13:21:16.296Z,43.40
2017-11-13T13:23:44.791Z,45.00
2017-11-13T13:26:12.514Z,45.00
2017-11-13T13:28:41.057Z,46.20
2017-11-13T13:31:08.801Z,46.70
2017-11-13T13:33:36.531Z,46.70
2017-11-13T13:36:04.344Z,46.80
2017-11-13T13:38:32.090Z,48.30
2017-11-13T13:40:59.923Z,46.00
2017-11-13T13:43:27.651Z,47.60
2017-11-13T13:45:55.383Z,49.20
2017-11-13T13:48:23.135Z,50.30
2017-11-13T13:50:51.635Z,51.90
2017-11-13T13:53:19.472Z,51.90
2017-11-13T13:55:48.135Z,57.80
2017-11-13T13:58:15.923Z,57.80
2017-11-13T14:00:44.475Z,61.50
2017-11-13T14:03:12.263Z,61.50
2017-11-13T14:05:40.020Z,63.90
2017-11-13T14:08:07.821Z,67.30
2017-11-13T14:10:35.602Z,67.60
2017-11-13T14:13:03.395Z,69.50
2017-11-13T14:15:31.133Z,71.10
2017-11-13T14:17:58.878Z,73.10
2017-11-13T14:20:27.380Z,76.10
2017-11-13T14:22:55.191Z,76.20
2017-11-13T14:25:23.719Z,80.30
2017-11-13T14:27:51.448Z,80.90
2017-11-13T14:30:19.175Z,82.60
2017-11-13T14:32:47.198Z,82.20
2017-11-13T14:35:15.675Z,85.00
2017-11-13T14:37:43.395Z,85.00
2017-11-13T14:40:11.113Z,85.30
2017-11-13T14:42:39.639Z,86.60
2017-11-13T14:45:07.406Z,86.50
2017-11-13T14:47:35.133Z,86.20
2017-11-13T14:50:02.871Z,87.00
2017-11-13T14:52:30.603Z,87.60
2017-11-13T14:54:58.346Z,88.50
2017-11-13T14:57:26.072Z,89.40
2017-11-13T14:59:54.559Z,89.00
2017-11-13T15:02:23.049Z,90.00
2017-11-13T15:04:51.535Z,90.10
2017-11-13T15:07:20.040Z,90.00
2017-11-13T15:09:47.759Z,90.10
2017-11-13T15:12:15.471Z,90.40
2017-11-13T15:14:43.195Z,90.10
2017-11-13T15:17:11.679Z,90.00
2017-11-13T15:19:40.172Z,89.80
2017-11-13T15:22:08.883Z,89.80
2017-11-13T15:24:36.644Z,89.80
2017-11-13T15:27:04.403Z,90.20
2017-11-13T15:29:32.159Z,90.20
2017-11-13T15:31:59.879Z,90.10
2017-11-13T15:34:27.590Z,90.30
2017-11-13T15:36:55.307Z,90.60
2017-11-13T15:39:23.056Z,90.40
2017-11-13T15:41:50.768Z,90.10
2017-11-13T15:44:19.247Z,90.90
2017-11-13T15:46:47.740Z,90.90
2017-11-13T15:49:15.449Z,90.90
2017-11-13T15:51:43.152Z,90.90
2017-11-13T15:54:11.632Z,90.80
2017-11-13T15:56:40.119Z,90.90
2017-11-13T15:59:08.600Z,90.90
2017-11-13T16:01:37.092Z,90.70
2017-11-13T16:04:05.573Z,90.60
2017-11-13T16:06:34.046Z,90.90
2017-11-13T16:09:02.533Z,91.00
2017-11-13T16:11:31.062Z,91.10
2017-11-13T16:13:58.772Z,91.10
2017-11-13T16:16:27.257Z,91.10
2017-11-13T16:18:55.743Z,91.10
2017-11-13T16:21:24.227Z,91.10
2017-11-13T16:23:52.731Z,91.20
2017-11-13T16:26:20.467Z,91.20
2017-11-13T16:28:49.006Z,91.20
2017-11-13T16:31:16.776Z,91.20
2017-11-13T16:33:44.512Z,91.10
2017-11-13T16:36:12.235Z,91.40
2017-11-13T16:38:40.724Z,91.70
2017-11-13T16:41:09.217Z,92.10
2017-11-13T16:43:36.952Z,92.10
2017-11-13T16:46:04.696Z,92.30
2017-11-13T16:48:32.429Z,92.50
2017-11-13T16:51:00.151Z,92.70
2017-11-13T16:53:28.646Z,92.70
2017-11-13T16:55:57.167Z,92.60
2017-11-13T16:58:24.899Z,92.60
2017-11-13T17:00:52.634Z,92.70
2017-11-13T17:03:20.365Z,92.70
2017-11-13T17:05:48.112Z,92.80
2017-11-13T17:08:15.847Z,92.70
2017-11-13T17:10:44.348Z,93.40
2017-11-13T17:13:12.072Z,93.40
2017-11-13T17:15:39.807Z,93.20
2017-11-13T17:18:07.532Z,93.20
2017-11-13T17:20:36.017Z,93.30
2017-11-13T17:23:03.753Z,93.30
2017-11-13T17:25:31.496Z,93.30
2017-11-13T17:27:59.229Z,93.30
2017-11-13T17:30:26.964Z,93.20
2017-11-13T17:32:55.450Z,93.40
2017-11-13T17:35:23.972Z,93.60
2017-11-13T17:37:51.696Z,93.50
2017-11-13T17:40:19.447Z,93.70
2017-11-13T17:42:47.955Z,93.60
2017-11-13T17:45:15.749Z,93.60
2017-11-13T17:47:43.471Z,93.80
2017-11-13T17:50:11.968Z,94.20
2017-11-13T17:52:39.704Z,94.20
2017-11-13T17:55:08.219Z,94.60
2017-11-13T17:57:36.008Z,94.60
2017-11-13T18:00:03.784Z,94.80
2017-11-13T18:02:31.535Z,95.20
2017-11-13T18:04:59.255Z,95.30
2017-11-13T18:07:27.760Z,95.20
2017-11-13T18:09:55.492Z,95.10
2017-11-13T18:12:23.991Z,95.20
2017-11-13T18:14:52.549Z,95.10
2017-11-13T18:17:20.290Z,95.10
2017-11-13T18:19:48.024Z,95.20
2017-11-13T18:22:15.748Z,95.20
2017-11-13T18:24:44.250Z,96.00
2017-11-13T18:27:12.754Z,96.30
2017-11-13T18:29:40.493Z,96.40
2017-11-13T18:32:09.000Z,96.50
2017-11-13T18:34:36.722Z,96.50
2017-11-13T18:37:04.451Z,96.70
2017-11-13T18:39:32.186Z,96.70
2017-11-13T18:41:59.917Z,96.00
2017-11-13T18:44:28.431Z,95.90
2017-11-13T18:46:56.161Z,95.90
2017-11-13T18:49:23.898Z,95.70
2017-11-13T18:51:51.638Z,95.80
2017-11-13T18:54:19.368Z,96.20
2017-11-13T18:56:47.869Z,97.10
2017-11-13T18:59:15.595Z,97.10
2017-11-13T19:01:43.331Z,97.20
2017-11-13T19:04:11.060Z,96.40
2017-11-13T19:06:38.799Z,96.00
2017-11-13T19:09:07.307Z,95.70
2017-11-13T19:11:35.027Z,95.70
2017-11-13T19:14:02.764Z,95.60
2017-11-13T19:16:30.496Z,95.70
2017-11-13T19:18:58.227Z,97.30
2017-11-13T19:21:25.966Z,97.20
2017-11-13T19:23:53.711Z,96.70
2017-11-13T19:26:21.442Z,96.40
2017-11-13T19:28:49.935Z,96.30
2017-11-13T19:31:17.675Z,96.40
2017-11-13T19:33:46.208Z,96.20
2017-11-13T19:36:13.977Z,96.20
2017-11-13T19:38:41.716Z,95.70
2017-11-13T19:41:09.490Z,95.60
2017-11-13T19:43:37.264Z,95.60
2017-11-13T19:46:05.088Z,95.70
2017-11-13T19:48:33.604Z,95.60
2017-11-13T19:51:01.333Z,95.60
2017-11-13T19:53:29.847Z,95.90
2017-11-13T19:55:57.584Z,95.90
2017-11-13T19:58:26.092Z,95.70
2017-11-13T20:00:53.844Z,95.70
2017-11-13T20:03:21.597Z,95.80
2017-11-13T20:05:50.099Z,95.90
2017-11-13T20:08:17.815Z,95.90
2017-11-13T20:10:45.561Z,95.80
2017-11-13T20:13:13.291Z,95.60
2017-11-13T20:15:41.035Z,95.50
2017-11-13T20:18:09.546Z,96.00
2017-11-13T20:20:37.304Z,96.10
2017-11-13T20:23:05.049Z,96.50
2017-11-13T20:25:32.773Z,97.20
2017-11-13T20:28:00.500Z,99.10
2017-11-13T20:30:28.218Z,99.90
2017-11-13T20:32:55.943Z,99.90
2017-11-13T20:35:23.658Z,99.60
2017-11-13T20:37:52.147Z,99.90
2017-11-13T20:40:20.629Z,99.40
2017-11-13T20:42:49.114Z,98.40
2017-11-13T20:45:17.693Z,98.10
2017-11-13T20:47:46.177Z,97.80
2017-11-13T20:50:14.718Z,97.80
2017-11-13T20:52:42.442Z,97.80
2017-11-13T20:55:10.188Z,97.80
2017-11-13T20:57:38.666Z,99.00
2017-11-13T21:00:07.217Z,99.60
2017-11-13T21:02:35.007Z,99.60
2017-11-13T21:05:03.523Z,99.90
2017-11-13T21:07:31.251Z,99.90
2017-11-13T21:09:58.972Z,99.40
2017-11-13T21:12:26.695Z,99.00
2017-11-13T21:14:55.456Z,97.90
2017-11-13T21:17:23.216Z,97.80
2017-11-13T21:19:52.443Z,97.10
2017-11-13T21:22:22.945Z,96.40
2017-11-13T21:24:50.695Z,96.40
2017-11-13T21:27:18.429Z,96.20
2017-11-13T21:29:46.169Z,96.20
2017-11-13T21:32:14.684Z,96.00
2017-11-13T21:34:42.419Z,96.00
2017-11-13T21:37:10.142Z,96.20
2017-11-13T21:39:37.888Z,96.40
2017-11-13T21:42:05.622Z,96.30
2017-11-13T21:44:33.352Z,96.40
2017-11-13T21:47:01.103Z,96.40
2017-11-13T21:49:28.838Z,96.40
2017-11-13T21:51:56.563Z,96.50
2017-11-13T21:54:25.068Z,96.60
2017-11-13T21:56:52.792Z,96.50
2017-11-13T21:59:21.325Z,96.80
2017-11-13T22:01:49.085Z,96.80
2017-11-13T22:04:16.807Z,96.70
2017-11-13T22:06:45.091Z,97.10
2017-11-13T22:09:13.707Z,97.00
2017-11-13T22:11:43.254Z,97.00
2017-11-13T22:14:11.095Z,96.90
2017-11-13T22:16:38.883Z,96.70
2017-11-13T22:19:08.305Z,96.60
2017-11-13T22:21:37.900Z,96.40
2017-11-13T22:24:07.477Z,96.80
2017-11-13T22:26:37.080Z,97.30
2017-11-13T22:29:25.702Z,98.50
2017-11-13T22:31:56.068Z,98.90
2017-11-13T22:34:23.794Z,98.90
2017-11-13T22:36:52.292Z,98.10
2017-11-13T22:39:20.055Z,98.10
2017-11-13T22:41:47.786Z,97.90
2017-11-13T22:44:15.573Z,97.30
2017-11-13T22:46:44.059Z,98.00
2017-11-13T22:49:11.805Z,98.00
2017-11-13T22:51:40.310Z,97.80
2017-11-13T22:54:08.051Z,97.80
2017-11-13T22:56:35.795Z,97.50
2017-11-13T22:59:03.528Z,97.10
2017-11-13T23:01:31.255Z,96.90
2017-11-13T23:03:59.734Z,97.50
2017-11-13T23:06:28.213Z,97.90
2017-11-13T23:08:56.695Z,97.70
2017-11-13T23:11:25.203Z,97.40
2017-11-13T23:13:52.938Z,97.40
2017-11-13T23:16:21.424Z,96.70
2017-11-13T23:18:49.900Z,96.50
2017-11-13T23:21:18.399Z,96.70
2017-11-13T23:23:47.013Z,96.40
2017-11-13T23:26:14.766Z,96.20
2017-11-13T23:28:42.486Z,96.80
2017-11-13T23:31:10.195Z,97.00
2017-11-13T23:33:37.903Z,97.10
2017-11-13T23:36:05.616Z,97.20
2017-11-13T23:38:33.335Z,96.70
2017-11-13T23:41:01.045Z,96.30
2017-11-13T23:43:28.802Z,96.30
2017-11-13T23:45:56.524Z,96.70
2017-11-13T23:48:24.295Z,96.70
2017-11-13T23:50:52.019Z,96.70
2017-11-13T23:53:19.743Z,96.90
2017-11-13T23:55:48.286Z,96.70
2017-11-13T23:58:16.019Z,96.70
